sensor_id;sensor_type;location;lat;lon;timestamp;P1;durP1;ratioP1;P2;durP2;ratioP2
70199;SDS011;57587;55.688;37.600;2023-11-19T00:00:09;14.47;;;7.23;;
70199;SDS011;57587;55.688;37.600;2023-11-19T00:02:41;14.38;;;6.90;;
70199;SDS011;57587;55.688;37.600;2023-11-19T00:05:10;15.38;;;6.82;;
70199;SDS011;57587;55.688;37.600;2023-11-19T00:07:40;12.43;;;6.63;;
70199;SDS011;57587;55.688;37.600;2023-11-19T00:12:38;15.33;;;6.97;;
70199;SDS011;57587;55.688;37.600;2023-11-19T00:15:07;15.23;;;7.00;;
70199;SDS011;57587;55.688;37.600;2023-11-19T00:17:39;15.25;;;6.78;;
70199;SDS011;57587;55.688;37.600;2023-11-19T00:20:12;16.20;;;7.45;;
70199;SDS011;57587;55.688;37.600;2023-11-19T00:22:43;15.35;;;7.05;;
70199;SDS011;57587;55.688;37.600;2023-11-19T00:25:15;15.30;;;7.00;;
70199;SDS011;57587;55.688;37.600;2023-11-19T00:27:44;13.32;;;7.10;;
70199;SDS011;57587;55.688;37.600;2023-11-19T00:30:12;13.82;;;7.43;;
70199;SDS011;57587;55.688;37.600;2023-11-19T00:32:41;14.77;;;7.90;;
70199;SDS011;57587;55.688;37.600;2023-11-19T00:35:08;17.70;;;8.18;;
70199;SDS011;57587;55.688;37.600;2023-11-19T00:37:42;14.97;;;8.30;;
70199;SDS011;57587;55.688;37.600;2023-11-19T00:40:10;13.77;;;6.82;;
70199;SDS011;57587;55.688;37.600;2023-11-19T00:42:38;15.10;;;8.15;;
70199;SDS011;57587;55.688;37.600;2023-11-19T00:45:05;17.55;;;7.30;;
70199;SDS011;57587;55.688;37.600;2023-11-19T00:47:38;13.95;;;7.45;;
70199;SDS011;57587;55.688;37.600;2023-11-19T00:50:06;19.10;;;7.90;;
70199;SDS011;57587;55.688;37.600;2023-11-19T00:52:37;16.75;;;6.93;;
70199;SDS011;57587;55.688;37.600;2023-11-19T00:55:05;18.23;;;7.90;;
70199;SDS011;57587;55.688;37.600;2023-11-19T00:57:34;17.25;;;7.88;;
70199;SDS011;57587;55.688;37.600;2023-11-19T01:00:03;15.00;;;8.13;;
70199;SDS011;57587;55.688;37.600;2023-11-19T01:02:42;16.50;;;8.13;;
70199;SDS011;57587;55.688;37.600;2023-11-19T01:05:09;14.80;;;6.90;;
70199;SDS011;57587;55.688;37.600;2023-11-19T01:07:36;17.45;;;7.85;;
70199;SDS011;57587;55.688;37.600;2023-11-19T01:10:04;14.05;;;6.80;;
70199;SDS011;57587;55.688;37.600;2023-11-19T01:12:31;18.52;;;9.38;;
70199;SDS011;57587;55.688;37.600;2023-11-19T01:14:59;24.63;;;11.90;;
70199;SDS011;57587;55.688;37.600;2023-11-19T01:17:31;19.92;;;10.00;;
70199;SDS011;57587;55.688;37.600;2023-11-19T01:19:58;24.92;;;10.32;;
70199;SDS011;57587;55.688;37.600;2023-11-19T01:22:25;17.83;;;9.05;;
70199;SDS011;57587;55.688;37.600;2023-11-19T01:24:53;23.52;;;9.60;;
70199;SDS011;57587;55.688;37.600;2023-11-19T01:27:21;18.37;;;9.67;;
70199;SDS011;57587;55.688;37.600;2023-11-19T01:29:48;24.45;;;9.13;;
70199;SDS011;57587;55.688;37.600;2023-11-19T01:32:15;19.10;;;8.88;;
70199;SDS011;57587;55.688;37.600;2023-11-19T01:34:43;23.70;;;9.52;;
70199;SDS011;57587;55.688;37.600;2023-11-19T01:37:10;17.05;;;9.13;;
70199;SDS011;57587;55.688;37.600;2023-11-19T01:39:43;24.50;;;8.83;;
70199;SDS011;57587;55.688;37.600;2023-11-19T01:42:24;18.45;;;9.80;;
70199;SDS011;57587;55.688;37.600;2023-11-19T01:44:58;25.88;;;10.23;;
70199;SDS011;57587;55.688;37.600;2023-11-19T01:47:27;20.58;;;9.27;;
70199;SDS011;57587;55.688;37.600;2023-11-19T01:49:55;15.85;;;9.60;;
70199;SDS011;57587;55.688;37.600;2023-11-19T01:52:23;27.37;;;8.57;;
70199;SDS011;57587;55.688;37.600;2023-11-19T01:54:52;17.23;;;8.27;;
70199;SDS011;57587;55.688;37.600;2023-11-19T01:57:22;19.17;;;8.52;;
70199;SDS011;57587;55.688;37.600;2023-11-19T01:59:53;17.33;;;8.27;;
70199;SDS011;57587;55.688;37.600;2023-11-19T02:02:20;17.77;;;7.95;;
70199;SDS011;57587;55.688;37.600;2023-11-19T02:04:49;12.33;;;7.60;;
70199;SDS011;57587;55.688;37.600;2023-11-19T02:07:18;23.92;;;7.75;;
70199;SDS011;57587;55.688;37.600;2023-11-19T02:09:45;17.27;;;7.53;;
70199;SDS011;57587;55.688;37.600;2023-11-19T02:12:13;16.70;;;7.90;;
70199;SDS011;57587;55.688;37.600;2023-11-19T02:14:40;20.33;;;7.43;;
70199;SDS011;57587;55.688;37.600;2023-11-19T02:17:24;15.87;;;8.43;;
70199;SDS011;57587;55.688;37.600;2023-11-19T02:19:53;21.90;;;9.15;;
70199;SDS011;57587;55.688;37.600;2023-11-19T02:22:20;17.55;;;8.88;;
70199;SDS011;57587;55.688;37.600;2023-11-19T02:24:47;19.10;;;8.30;;
70199;SDS011;57587;55.688;37.600;2023-11-19T02:27:24;15.65;;;7.82;;
70199;SDS011;57587;55.688;37.600;2023-11-19T02:29:57;20.13;;;8.37;;
70199;SDS011;57587;55.688;37.600;2023-11-19T02:32:27;15.65;;;7.80;;
70199;SDS011;57587;55.688;37.600;2023-11-19T02:34:57;14.02;;;7.18;;
70199;SDS011;57587;55.688;37.600;2023-11-19T02:37:34;19.33;;;9.20;;
70199;SDS011;57587;55.688;37.600;2023-11-19T02:40:01;20.00;;;8.98;;
70199;SDS011;57587;55.688;37.600;2023-11-19T02:42:30;21.27;;;9.67;;
70199;SDS011;57587;55.688;37.600;2023-11-19T02:44:57;17.00;;;8.13;;
70199;SDS011;57587;55.688;37.600;2023-11-19T02:47:25;18.83;;;9.07;;
70199;SDS011;57587;55.688;37.600;2023-11-19T02:49:52;24.50;;;8.48;;
70199;SDS011;57587;55.688;37.600;2023-11-19T02:52:20;19.33;;;9.15;;
70199;SDS011;57587;55.688;37.600;2023-11-19T02:54:47;21.80;;;9.13;;
70199;SDS011;57587;55.688;37.600;2023-11-19T02:57:14;19.38;;;8.80;;
70199;SDS011;57587;55.688;37.600;2023-11-19T02:59:44;16.00;;;8.20;;
70199;SDS011;57587;55.688;37.600;2023-11-19T03:02:11;19.45;;;8.30;;
70199;SDS011;57587;55.688;37.600;2023-11-19T03:04:39;23.50;;;8.13;;
70199;SDS011;57587;55.688;37.600;2023-11-19T03:07:12;15.90;;;8.33;;
70199;SDS011;57587;55.688;37.600;2023-11-19T03:09:40;14.98;;;8.48;;
70199;SDS011;57587;55.688;37.600;2023-11-19T03:12:07;24.75;;;8.73;;
70199;SDS011;57587;55.688;37.600;2023-11-19T03:14:35;17.70;;;8.32;;
70199;SDS011;57587;55.688;37.600;2023-11-19T03:17:02;27.45;;;9.90;;
70199;SDS011;57587;55.688;37.600;2023-11-19T03:19:30;16.97;;;9.20;;
70199;SDS011;57587;55.688;37.600;2023-11-19T03:21:57;20.77;;;8.82;;
70199;SDS011;57587;55.688;37.600;2023-11-19T03:24:26;18.45;;;9.45;;
70199;SDS011;57587;55.688;37.600;2023-11-19T03:26:53;23.00;;;9.65;;
70199;SDS011;57587;55.688;37.600;2023-11-19T03:29:20;17.23;;;8.90;;
70199;SDS011;57587;55.688;37.600;2023-11-19T03:31:49;16.40;;;9.23;;
70199;SDS011;57587;55.688;37.600;2023-11-19T03:34:17;17.90;;;10.20;;
70199;SDS011;57587;55.688;37.600;2023-11-19T03:36:44;20.63;;;10.15;;
70199;SDS011;57587;55.688;37.600;2023-11-19T03:39:12;20.33;;;10.73;;
70199;SDS011;57587;55.688;37.600;2023-11-19T03:41:39;19.38;;;9.27;;
70199;SDS011;57587;55.688;37.600;2023-11-19T03:44:08;18.57;;;9.17;;
70199;SDS011;57587;55.688;37.600;2023-11-19T03:46:35;22.33;;;10.40;;
70199;SDS011;57587;55.688;37.600;2023-11-19T03:49:04;23.88;;;9.23;;
70199;SDS011;57587;55.688;37.600;2023-11-19T03:51:34;17.40;;;8.90;;
70199;SDS011;57587;55.688;37.600;2023-11-19T03:54:01;21.52;;;9.73;;
70199;SDS011;57587;55.688;37.600;2023-11-19T03:56:29;20.30;;;8.80;;
70199;SDS011;57587;55.688;37.600;2023-11-19T03:58:57;19.55;;;8.82;;
70199;SDS011;57587;55.688;37.600;2023-11-19T04:01:25;31.38;;;9.80;;
70199;SDS011;57587;55.688;37.600;2023-11-19T04:03:52;21.77;;;9.52;;
70199;SDS011;57587;55.688;37.600;2023-11-19T04:06:19;25.10;;;8.77;;
70199;SDS011;57587;55.688;37.600;2023-11-19T04:08:47;22.47;;;9.00;;
70199;SDS011;57587;55.688;37.600;2023-11-19T04:11:15;18.42;;;9.73;;
70199;SDS011;57587;55.688;37.600;2023-11-19T04:13:42;19.17;;;9.40;;
70199;SDS011;57587;55.688;37.600;2023-11-19T04:16:09;17.75;;;8.95;;
70199;SDS011;57587;55.688;37.600;2023-11-19T04:18:36;21.20;;;9.18;;
70199;SDS011;57587;55.688;37.600;2023-11-19T04:21:05;19.67;;;8.77;;
70199;SDS011;57587;55.688;37.600;2023-11-19T04:23:35;21.17;;;10.60;;
70199;SDS011;57587;55.688;37.600;2023-11-19T04:26:02;26.05;;;11.13;;
70199;SDS011;57587;55.688;37.600;2023-11-19T04:28:33;24.67;;;9.93;;
70199;SDS011;57587;55.688;37.600;2023-11-19T04:31:00;30.42;;;9.80;;
70199;SDS011;57587;55.688;37.600;2023-11-19T04:33:28;19.77;;;9.50;;
70199;SDS011;57587;55.688;37.600;2023-11-19T04:35:55;19.35;;;9.15;;
70199;SDS011;57587;55.688;37.600;2023-11-19T04:38:22;20.63;;;10.73;;
70199;SDS011;57587;55.688;37.600;2023-11-19T04:40:49;24.95;;;10.05;;
70199;SDS011;57587;55.688;37.600;2023-11-19T04:43:17;16.58;;;9.18;;
70199;SDS011;57587;55.688;37.600;2023-11-19T04:45:44;16.80;;;10.00;;
70199;SDS011;57587;55.688;37.600;2023-11-19T04:48:11;21.70;;;10.13;;
70199;SDS011;57587;55.688;37.600;2023-11-19T04:50:39;21.60;;;9.32;;
70199;SDS011;57587;55.688;37.600;2023-11-19T04:53:06;23.23;;;10.32;;
70199;SDS011;57587;55.688;37.600;2023-11-19T04:55:33;23.35;;;11.40;;
70199;SDS011;57587;55.688;37.600;2023-11-19T04:58:00;25.03;;;10.03;;
70199;SDS011;57587;55.688;37.600;2023-11-19T05:00:28;23.02;;;10.38;;
70199;SDS011;57587;55.688;37.600;2023-11-19T05:02:55;21.77;;;10.98;;
70199;SDS011;57587;55.688;37.600;2023-11-19T05:05:22;25.42;;;10.40;;
70199;SDS011;57587;55.688;37.600;2023-11-19T05:07:49;21.80;;;10.38;;
70199;SDS011;57587;55.688;37.600;2023-11-19T05:10:16;21.30;;;10.43;;
70199;SDS011;57587;55.688;37.600;2023-11-19T05:12:44;20.88;;;10.43;;
70199;SDS011;57587;55.688;37.600;2023-11-19T05:15:11;16.02;;;9.82;;
70199;SDS011;57587;55.688;37.600;2023-11-19T05:17:39;25.10;;;9.98;;
70199;SDS011;57587;55.688;37.600;2023-11-19T05:20:07;21.92;;;10.15;;
70199;SDS011;57587;55.688;37.600;2023-11-19T05:22:41;20.57;;;10.03;;
70199;SDS011;57587;55.688;37.600;2023-11-19T05:25:08;22.50;;;9.75;;
70199;SDS011;57587;55.688;37.600;2023-11-19T05:27:37;30.05;;;10.88;;
70199;SDS011;57587;55.688;37.600;2023-11-19T05:30:05;16.52;;;9.65;;
70199;SDS011;57587;55.688;37.600;2023-11-19T05:32:34;19.05;;;9.48;;
70199;SDS011;57587;55.688;37.600;2023-11-19T05:35:01;20.20;;;10.47;;
70199;SDS011;57587;55.688;37.600;2023-11-19T05:37:30;21.42;;;9.90;;
70199;SDS011;57587;55.688;37.600;2023-11-19T05:39:57;19.10;;;9.23;;
70199;SDS011;57587;55.688;37.600;2023-11-19T05:42:29;26.48;;;9.00;;
70199;SDS011;57587;55.688;37.600;2023-11-19T05:44:56;18.38;;;9.02;;
70199;SDS011;57587;55.688;37.600;2023-11-19T05:47:24;17.67;;;9.73;;
70199;SDS011;57587;55.688;37.600;2023-11-19T05:49:52;17.13;;;8.27;;
70199;SDS011;57587;55.688;37.600;2023-11-19T05:52:19;22.13;;;9.93;;
70199;SDS011;57587;55.688;37.600;2023-11-19T05:54:48;19.02;;;9.95;;
70199;SDS011;57587;55.688;37.600;2023-11-19T05:57:18;19.45;;;10.10;;
70199;SDS011;57587;55.688;37.600;2023-11-19T05:59:50;15.30;;;8.43;;
70199;SDS011;57587;55.688;37.600;2023-11-19T06:02:18;17.70;;;9.70;;
70199;SDS011;57587;55.688;37.600;2023-11-19T06:04:45;17.55;;;9.32;;
70199;SDS011;57587;55.688;37.600;2023-11-19T06:07:14;23.75;;;11.45;;
70199;SDS011;57587;55.688;37.600;2023-11-19T06:09:42;18.88;;;10.70;;
70199;SDS011;57587;55.688;37.600;2023-11-19T06:12:09;19.90;;;9.07;;
70199;SDS011;57587;55.688;37.600;2023-11-19T06:14:36;19.77;;;8.95;;
70199;SDS011;57587;55.688;37.600;2023-11-19T06:17:03;20.55;;;10.63;;
70199;SDS011;57587;55.688;37.600;2023-11-19T06:19:31;22.15;;;10.73;;
70199;SDS011;57587;55.688;37.600;2023-11-19T06:22:00;20.90;;;11.20;;
70199;SDS011;57587;55.688;37.600;2023-11-19T06:24:27;30.80;;;11.57;;
70199;SDS011;57587;55.688;37.600;2023-11-19T06:26:54;23.80;;;12.30;;
70199;SDS011;57587;55.688;37.600;2023-11-19T06:29:22;19.00;;;10.93;;
70199;SDS011;57587;55.688;37.600;2023-11-19T06:31:49;20.45;;;9.88;;
70199;SDS011;57587;55.688;37.600;2023-11-19T06:34:16;19.17;;;10.27;;
70199;SDS011;57587;55.688;37.600;2023-11-19T06:36:43;20.13;;;9.67;;
70199;SDS011;57587;55.688;37.600;2023-11-19T06:39:11;22.25;;;9.85;;
70199;SDS011;57587;55.688;37.600;2023-11-19T06:41:39;21.15;;;11.70;;
70199;SDS011;57587;55.688;37.600;2023-11-19T06:44:06;22.83;;;10.55;;
70199;SDS011;57587;55.688;37.600;2023-11-19T06:46:33;28.52;;;11.02;;
70199;SDS011;57587;55.688;37.600;2023-11-19T06:49:00;20.17;;;10.80;;
70199;SDS011;57587;55.688;37.600;2023-11-19T06:51:27;18.45;;;10.65;;
70199;SDS011;57587;55.688;37.600;2023-11-19T06:53:56;20.98;;;10.50;;
70199;SDS011;57587;55.688;37.600;2023-11-19T06:56:23;18.88;;;10.40;;
70199;SDS011;57587;55.688;37.600;2023-11-19T06:58:51;21.02;;;10.70;;
70199;SDS011;57587;55.688;37.600;2023-11-19T07:01:19;25.03;;;8.90;;
70199;SDS011;57587;55.688;37.600;2023-11-19T07:03:47;18.80;;;9.63;;
70199;SDS011;57587;55.688;37.600;2023-11-19T07:06:15;16.70;;;9.40;;
70199;SDS011;57587;55.688;37.600;2023-11-19T07:08:42;18.23;;;9.68;;
70199;SDS011;57587;55.688;37.600;2023-11-19T07:11:12;22.33;;;10.90;;
70199;SDS011;57587;55.688;37.600;2023-11-19T07:13:44;21.67;;;11.03;;
70199;SDS011;57587;55.688;37.600;2023-11-19T07:16:14;23.13;;;12.15;;
70199;SDS011;57587;55.688;37.600;2023-11-19T07:18:41;22.85;;;10.93;;
70199;SDS011;57587;55.688;37.600;2023-11-19T07:21:10;19.98;;;11.68;;
70199;SDS011;57587;55.688;37.600;2023-11-19T07:23:38;21.80;;;10.88;;
70199;SDS011;57587;55.688;37.600;2023-11-19T07:26:05;27.77;;;10.67;;
70199;SDS011;57587;55.688;37.600;2023-11-19T07:28:36;21.23;;;11.23;;
70199;SDS011;57587;55.688;37.600;2023-11-19T07:31:03;22.45;;;11.10;;
70199;SDS011;57587;55.688;37.600;2023-11-19T07:33:31;22.13;;;10.93;;
70199;SDS011;57587;55.688;37.600;2023-11-19T07:35:58;23.88;;;9.80;;
70199;SDS011;57587;55.688;37.600;2023-11-19T07:38:25;18.23;;;10.73;;
70199;SDS011;57587;55.688;37.600;2023-11-19T07:40:53;26.15;;;9.30;;
70199;SDS011;57587;55.688;37.600;2023-11-19T07:43:23;23.30;;;12.68;;
70199;SDS011;57587;55.688;37.600;2023-11-19T07:45:51;19.90;;;10.77;;
70199;SDS011;57587;55.688;37.600;2023-11-19T07:48:19;18.25;;;11.57;;
70199;SDS011;57587;55.688;37.600;2023-11-19T07:50:50;24.87;;;11.83;;
70199;SDS011;57587;55.688;37.600;2023-11-19T07:53:20;23.63;;;10.27;;
70199;SDS011;57587;55.688;37.600;2023-11-19T07:55:47;29.58;;;12.63;;
70199;SDS011;57587;55.688;37.600;2023-11-19T07:58:14;21.17;;;11.77;;
70199;SDS011;57587;55.688;37.600;2023-11-19T08:00:41;20.80;;;12.57;;
70199;SDS011;57587;55.688;37.600;2023-11-19T08:03:09;23.43;;;11.77;;
70199;SDS011;57587;55.688;37.600;2023-11-19T08:05:36;26.00;;;10.13;;
70199;SDS011;57587;55.688;37.600;2023-11-19T08:08:04;22.35;;;11.60;;
70199;SDS011;57587;55.688;37.600;2023-11-19T08:10:31;20.02;;;10.93;;
70199;SDS011;57587;55.688;37.600;2023-11-19T08:12:59;23.05;;;11.27;;
70199;SDS011;57587;55.688;37.600;2023-11-19T08:15:27;17.93;;;10.20;;
70199;SDS011;57587;55.688;37.600;2023-11-19T08:17:57;20.35;;;11.40;;
70199;SDS011;57587;55.688;37.600;2023-11-19T08:20:24;21.50;;;11.98;;
70199;SDS011;57587;55.688;37.600;2023-11-19T08:22:51;20.67;;;11.07;;
70199;SDS011;57587;55.688;37.600;2023-11-19T08:25:19;21.20;;;10.02;;
70199;SDS011;57587;55.688;37.600;2023-11-19T08:27:46;22.87;;;10.67;;
70199;SDS011;57587;55.688;37.600;2023-11-19T08:30:13;20.60;;;11.05;;
70199;SDS011;57587;55.688;37.600;2023-11-19T08:32:40;25.05;;;11.90;;
70199;SDS011;57587;55.688;37.600;2023-11-19T08:35:08;22.52;;;10.73;;
70199;SDS011;57587;55.688;37.600;2023-11-19T08:37:35;17.52;;;10.70;;
70199;SDS011;57587;55.688;37.600;2023-11-19T08:40:04;22.83;;;11.07;;
70199;SDS011;57587;55.688;37.600;2023-11-19T08:42:33;22.13;;;11.27;;
70199;SDS011;57587;55.688;37.600;2023-11-19T08:45:00;25.45;;;11.25;;
70199;SDS011;57587;55.688;37.600;2023-11-19T08:47:30;18.13;;;10.38;;
70199;SDS011;57587;55.688;37.600;2023-11-19T08:49:57;24.42;;;13.02;;
70199;SDS011;57587;55.688;37.600;2023-11-19T08:52:29;20.33;;;11.40;;
70199;SDS011;57587;55.688;37.600;2023-11-19T08:55:00;20.98;;;9.48;;
70199;SDS011;57587;55.688;37.600;2023-11-19T08:57:28;23.95;;;12.75;;
70199;SDS011;57587;55.688;37.600;2023-11-19T08:59:56;23.02;;;11.05;;
70199;SDS011;57587;55.688;37.600;2023-11-19T09:02:23;17.77;;;10.32;;
70199;SDS011;57587;55.688;37.600;2023-11-19T09:04:50;14.97;;;9.67;;
70199;SDS011;57587;55.688;37.600;2023-11-19T09:07:20;13.95;;;8.98;;
70199;SDS011;57587;55.688;37.600;2023-11-19T09:09:49;17.58;;;8.50;;
70199;SDS011;57587;55.688;37.600;2023-11-19T09:12:16;12.90;;;8.18;;
70199;SDS011;57587;55.688;37.600;2023-11-19T09:14:43;16.27;;;8.80;;
70199;SDS011;57587;55.688;37.600;2023-11-19T09:17:10;14.33;;;8.13;;
70199;SDS011;57587;55.688;37.600;2023-11-19T09:19:38;16.30;;;7.90;;
70199;SDS011;57587;55.688;37.600;2023-11-19T09:22:05;18.98;;;8.63;;
70199;SDS011;57587;55.688;37.600;2023-11-19T09:24:32;14.48;;;9.10;;
70199;SDS011;57587;55.688;37.600;2023-11-19T09:26:59;16.17;;;8.25;;
70199;SDS011;57587;55.688;37.600;2023-11-19T09:29:27;17.90;;;8.63;;
70199;SDS011;57587;55.688;37.600;2023-11-19T09:31:54;17.30;;;9.95;;
70199;SDS011;57587;55.688;37.600;2023-11-19T09:34:21;15.15;;;9.50;;
70199;SDS011;57587;55.688;37.600;2023-11-19T09:36:48;15.25;;;8.32;;
70199;SDS011;57587;55.688;37.600;2023-11-19T09:39:16;16.73;;;8.90;;
70199;SDS011;57587;55.688;37.600;2023-11-19T09:41:44;16.53;;;7.47;;
70199;SDS011;57587;55.688;37.600;2023-11-19T09:44:12;19.73;;;9.55;;
70199;SDS011;57587;55.688;37.600;2023-11-19T09:46:42;15.18;;;8.98;;
70199;SDS011;57587;55.688;37.600;2023-11-19T09:49:10;15.80;;;9.05;;
70199;SDS011;57587;55.688;37.600;2023-11-19T09:51:38;14.20;;;8.65;;
70199;SDS011;57587;55.688;37.600;2023-11-19T09:54:05;22.53;;;8.20;;
70199;SDS011;57587;55.688;37.600;2023-11-19T09:56:33;14.13;;;7.55;;
70199;SDS011;57587;55.688;37.600;2023-11-19T09:59:04;17.92;;;8.55;;
70199;SDS011;57587;55.688;37.600;2023-11-19T10:01:35;14.32;;;9.07;;
70199;SDS011;57587;55.688;37.600;2023-11-19T10:04:03;16.27;;;8.77;;
70199;SDS011;57587;55.688;37.600;2023-11-19T10:06:33;19.23;;;9.10;;
70199;SDS011;57587;55.688;37.600;2023-11-19T10:09:00;15.82;;;8.77;;
70199;SDS011;57587;55.688;37.600;2023-11-19T10:11:27;18.08;;;8.95;;
70199;SDS011;57587;55.688;37.600;2023-11-19T10:13:55;13.55;;;9.05;;
70199;SDS011;57587;55.688;37.600;2023-11-19T10:16:27;16.17;;;9.65;;
70199;SDS011;57587;55.688;37.600;2023-11-19T10:18:57;16.33;;;8.43;;
70199;SDS011;57587;55.688;37.600;2023-11-19T10:21:24;17.98;;;8.77;;
70199;SDS011;57587;55.688;37.600;2023-11-19T10:23:55;14.98;;;7.88;;
70199;SDS011;57587;55.688;37.600;2023-11-19T10:26:27;15.65;;;8.73;;
70199;SDS011;57587;55.688;37.600;2023-11-19T10:28:55;17.05;;;8.95;;
70199;SDS011;57587;55.688;37.600;2023-11-19T10:31:22;16.90;;;8.17;;
70199;SDS011;57587;55.688;37.600;2023-11-19T10:33:53;20.48;;;7.82;;
70199;SDS011;57587;55.688;37.600;2023-11-19T10:36:21;17.08;;;8.88;;
70199;SDS011;57587;55.688;37.600;2023-11-19T10:38:52;15.90;;;9.63;;
70199;SDS011;57587;55.688;37.600;2023-11-19T10:41:29;20.33;;;8.80;;
70199;SDS011;57587;55.688;37.600;2023-11-19T10:44:00;16.17;;;8.17;;
70199;SDS011;57587;55.688;37.600;2023-11-19T10:46:41;14.88;;;8.35;;
70199;SDS011;57587;55.688;37.600;2023-11-19T10:49:09;12.85;;;8.73;;
70199;SDS011;57587;55.688;37.600;2023-11-19T10:51:39;21.13;;;8.48;;
70199;SDS011;57587;55.688;37.600;2023-11-19T10:54:11;15.18;;;7.93;;
70199;SDS011;57587;55.688;37.600;2023-11-19T10:56:42;17.73;;;8.40;;
70199;SDS011;57587;55.688;37.600;2023-11-19T10:59:12;11.32;;;6.97;;
70199;SDS011;57587;55.688;37.600;2023-11-19T11:01:44;14.45;;;7.50;;
70199;SDS011;57587;55.688;37.600;2023-11-19T11:04:15;15.02;;;8.00;;
70199;SDS011;57587;55.688;37.600;2023-11-19T11:06:50;15.10;;;8.73;;
70199;SDS011;57587;55.688;37.600;2023-11-19T11:09:20;16.20;;;9.00;;
70199;SDS011;57587;55.688;37.600;2023-11-19T11:11:48;14.50;;;8.10;;
70199;SDS011;57587;55.688;37.600;2023-11-19T11:14:16;13.45;;;7.30;;
70199;SDS011;57587;55.688;37.600;2023-11-19T11:16:48;13.88;;;7.45;;
70199;SDS011;57587;55.688;37.600;2023-11-19T11:19:15;19.50;;;7.95;;
70199;SDS011;57587;55.688;37.600;2023-11-19T11:21:54;12.10;;;7.53;;
70199;SDS011;57587;55.688;37.600;2023-11-19T11:38:48;17.42;;;7.85;;
70199;SDS011;57587;55.688;37.600;2023-11-19T11:41:23;11.65;;;7.43;;
70199;SDS011;57587;55.688;37.600;2023-11-19T11:43:56;14.90;;;7.90;;
70199;SDS011;57587;55.688;37.600;2023-11-19T11:49:06;13.43;;;8.00;;
70199;SDS011;57587;55.688;37.600;2023-11-19T11:57:31;12.90;;;6.10;;
70199;SDS011;57587;55.688;37.600;2023-11-19T12:02:09;11.87;;;6.87;;
70199;SDS011;57587;55.688;37.600;2023-11-19T12:04:41;19.52;;;7.50;;
70199;SDS011;57587;55.688;37.600;2023-11-19T12:07:27;14.75;;;7.80;;
70199;SDS011;57587;55.688;37.600;2023-11-19T12:10:07;15.20;;;7.40;;
70199;SDS011;57587;55.688;37.600;2023-11-19T12:12:39;17.02;;;9.30;;
70199;SDS011;57587;55.688;37.600;2023-11-19T12:15:08;13.37;;;7.80;;
70199;SDS011;57587;55.688;37.600;2023-11-19T12:17:47;19.75;;;7.97;;
70199;SDS011;57587;55.688;37.600;2023-11-19T12:20:17;21.05;;;8.93;;
70199;SDS011;57587;55.688;37.600;2023-11-19T12:22:49;15.60;;;8.30;;
70199;SDS011;57587;55.688;37.600;2023-11-19T12:25:17;14.52;;;7.40;;
70199;SDS011;57587;55.688;37.600;2023-11-19T12:27:50;9.87;;;6.57;;
70199;SDS011;57587;55.688;37.600;2023-11-19T12:30:22;12.38;;;7.65;;
70199;SDS011;57587;55.688;37.600;2023-11-19T12:32:53;15.05;;;6.75;;
70199;SDS011;57587;55.688;37.600;2023-11-19T12:35:22;14.63;;;7.35;;
70199;SDS011;57587;55.688;37.600;2023-11-19T12:37:51;12.45;;;6.78;;
70199;SDS011;57587;55.688;37.600;2023-11-19T12:40:21;14.30;;;7.97;;
70199;SDS011;57587;55.688;37.600;2023-11-19T12:42:52;13.25;;;7.47;;
70199;SDS011;57587;55.688;37.600;2023-11-19T12:45:21;17.88;;;9.35;;
70199;SDS011;57587;55.688;37.600;2023-11-19T12:48:03;15.57;;;8.25;;
70199;SDS011;57587;55.688;37.600;2023-11-19T12:53:21;20.73;;;9.93;;
70199;SDS011;57587;55.688;37.600;2023-11-19T12:55:50;20.92;;;10.48;;
70199;SDS011;57587;55.688;37.600;2023-11-19T13:01:15;15.30;;;10.18;;
70199;SDS011;57587;55.688;37.600;2023-11-19T13:03:45;21.67;;;10.70;;
70199;SDS011;57587;55.688;37.600;2023-11-19T13:06:13;23.80;;;10.23;;
70199;SDS011;57587;55.688;37.600;2023-11-19T13:08:43;18.92;;;10.68;;
70199;SDS011;57587;55.688;37.600;2023-11-19T13:11:12;18.40;;;10.40;;
70199;SDS011;57587;55.688;37.600;2023-11-19T13:16:43;22.40;;;10.45;;
70199;SDS011;57587;55.688;37.600;2023-11-19T13:19:12;24.17;;;10.37;;
70199;SDS011;57587;55.688;37.600;2023-11-19T13:21:40;20.10;;;10.32;;
70199;SDS011;57587;55.688;37.600;2023-11-19T13:24:07;17.08;;;10.57;;
70199;SDS011;57587;55.688;37.600;2023-11-19T13:26:35;24.98;;;10.18;;
70199;SDS011;57587;55.688;37.600;2023-11-19T13:29:02;18.42;;;10.15;;
70199;SDS011;57587;55.688;37.600;2023-11-19T13:31:29;17.10;;;9.37;;
70199;SDS011;57587;55.688;37.600;2023-11-19T13:33:57;17.60;;;9.90;;
70199;SDS011;57587;55.688;37.600;2023-11-19T13:36:25;15.10;;;9.68;;
70199;SDS011;57587;55.688;37.600;2023-11-19T13:38:53;15.18;;;9.57;;
70199;SDS011;57587;55.688;37.600;2023-11-19T13:41:27;20.58;;;8.88;;
70199;SDS011;57587;55.688;37.600;2023-11-19T13:43:54;15.73;;;8.90;;
70199;SDS011;57587;55.688;37.600;2023-11-19T13:46:22;16.00;;;9.32;;
70199;SDS011;57587;55.688;37.600;2023-11-19T13:48:49;14.02;;;8.80;;
70199;SDS011;57587;55.688;37.600;2023-11-19T13:51:16;23.42;;;10.13;;
70199;SDS011;57587;55.688;37.600;2023-11-19T13:53:43;16.77;;;9.52;;
70199;SDS011;57587;55.688;37.600;2023-11-19T13:56:14;21.77;;;9.03;;
70199;SDS011;57587;55.688;37.600;2023-11-19T13:58:41;21.88;;;9.27;;
70199;SDS011;57587;55.688;37.600;2023-11-19T14:01:08;16.27;;;9.40;;
70199;SDS011;57587;55.688;37.600;2023-11-19T14:03:35;20.58;;;9.77;;
70199;SDS011;57587;55.688;37.600;2023-11-19T14:06:03;17.25;;;8.88;;
70199;SDS011;57587;55.688;37.600;2023-11-19T14:08:30;27.27;;;11.00;;
70199;SDS011;57587;55.688;37.600;2023-11-19T14:10:57;18.77;;;9.10;;
70199;SDS011;57587;55.688;37.600;2023-11-19T14:13:24;19.35;;;10.48;;
70199;SDS011;57587;55.688;37.600;2023-11-19T14:15:52;18.35;;;10.20;;
70199;SDS011;57587;55.688;37.600;2023-11-19T14:18:19;25.35;;;10.13;;
70199;SDS011;57587;55.688;37.600;2023-11-19T14:20:46;21.37;;;11.57;;
70199;SDS011;57587;55.688;37.600;2023-11-19T14:23:13;23.25;;;10.68;;
70199;SDS011;57587;55.688;37.600;2023-11-19T14:25:41;24.20;;;10.63;;
70199;SDS011;57587;55.688;37.600;2023-11-19T14:28:08;20.33;;;10.52;;
70199;SDS011;57587;55.688;37.600;2023-11-19T14:30:35;18.88;;;9.25;;
70199;SDS011;57587;55.688;37.600;2023-11-19T14:33:03;27.60;;;11.03;;
70199;SDS011;57587;55.688;37.600;2023-11-19T14:35:30;22.42;;;9.43;;
70199;SDS011;57587;55.688;37.600;2023-11-19T14:38:01;23.15;;;9.70;;
70199;SDS011;57587;55.688;37.600;2023-11-19T14:40:32;18.13;;;9.32;;
70199;SDS011;57587;55.688;37.600;2023-11-19T14:43:02;20.80;;;9.65;;
70199;SDS011;57587;55.688;37.600;2023-11-19T14:45:31;17.50;;;10.33;;
70199;SDS011;57587;55.688;37.600;2023-11-19T14:48:10;22.45;;;9.80;;
70199;SDS011;57587;55.688;37.600;2023-11-19T14:50:37;24.08;;;10.50;;
70199;SDS011;57587;55.688;37.600;2023-11-19T14:53:05;28.02;;;11.48;;
70199;SDS011;57587;55.688;37.600;2023-11-19T14:55:32;22.88;;;10.30;;
70199;SDS011;57587;55.688;37.600;2023-11-19T14:57:59;26.03;;;10.03;;
70199;SDS011;57587;55.688;37.600;2023-11-19T15:00:35;22.02;;;10.05;;
70199;SDS011;57587;55.688;37.600;2023-11-19T15:03:03;22.02;;;11.48;;